KJCA

Jackson County Airport

Jefferson, Georgia, USA
METAR KJCA 151215Z AUTO 29007KT 1 3/4SM -RA BR BKN003 BKN007 OVC012 03/03 A3013 RMK AO2 P0002 T00340031
Observed Flight Rules
Nov-15 @ 12:15 UTC (28 minutes ago) Instrument Flight Rules
Wind Visibility Clouds Conditions
290° at 7 knots 1 3/4 miles
  • Broken at 300' AGL
  • Broken at 700' AGL
  • Overcast at 1,200' AGL
  • Light Rain
  • Mist
Temperatures Readings Precipitation
Current 3°C / 37°F
Dewpoint 3°C / 37°F
Humidity 100%
Altimeter 30.13" Hg
Pressure 1020 hPa
Elevation 290
Current Rain 0.02
METAR KJCA 151215Z AUTO 29007KT 1 3/4SM -RA BR BKN003 BKN007 OVC012 03/03 A3013 RMK AO2 P0002 T00340031
Observed Flight Rules
Nov-15 @ 12:15 UTC
(28 minutes ago)
LIFR
Wind Visibility
290° at 7 knots 1 3/4 miles
Clouds
  • Broken at 300' AGL
  • Broken at 700' AGL
  • Overcast at 1,200' AGL
Conditions
  • Light Rain
  • Mist
Temperature Dewpoint
3°C / 37°F 3°C / 37°F
Humidity Altimeter Pressure
100% 30.13" Hg 1020 hPa
Current Rain
0.02